Time;durP1;ratioP1;P1;durP2;ratioP2;P2;SDS_P1;SDS_P2;PMS_P1;PMS_P2;Temp;Humidity;BMP_temperature;BMP_pressure;BME280_temperature;BME280_humidity;BME280_pressure;Samples;Min_cycle;Max_cycle;Signal;HPM_P1;HPM_P2
2023/01/03 00:00:52;;;;;;;23.15;13.85;;;3.30;99.90;;;;;;4976563;28;20362;-77
2023/01/03 00:03:17;;;;;;;24.15;14.05;;;3.50;99.90;;;;;;4995735;28;20089;-78
2023/01/03 00:05:44;;;;;;;28.50;15.85;;;3.60;99.90;;;;;;4965669;28;20077;-77
2023/01/03 00:08:10;;;;;;;24.52;15.75;;;3.70;99.90;;;;;;4975678;28;20030;-78
2023/01/03 00:10:36;;;;;;;22.77;14.32;;;3.70;99.90;;;;;;4980432;28;20705;-77
2023/01/03 00:13:02;;;;;;;29.00;15.35;;;3.90;99.90;;;;;;4977652;28;20035;-77
2023/01/03 00:15:27;;;;;;;22.38;14.57;;;3.80;99.90;;;;;;4994535;28;20034;-77
2023/01/03 00:17:54;;;;;;;28.73;17.08;;;4.00;99.90;;;;;;4985015;28;20037;-78
2023/01/03 00:20:20;;;;;;;25.52;16.08;;;4.00;99.90;;;;;;4990356;28;20370;-79
2023/01/03 00:22:46;;;;;;;28.08;16.15;;;4.00;99.90;;;;;;4981760;28;20061;-79
2023/01/03 00:25:11;;;;;;;32.92;17.73;;;4.00;99.90;;;;;;4980891;28;20049;-79
2023/01/03 00:27:37;;;;;;;25.60;15.00;;;4.00;99.90;;;;;;4982381;28;20037;-80
2023/01/03 00:30:03;;;;;;;26.10;16.05;;;3.90;99.90;;;;;;4987504;28;20481;-79
2023/01/03 00:32:29;;;;;;;25.20;15.05;;;4.00;99.90;;;;;;4980163;28;20034;-78
2023/01/03 00:34:54;;;;;;;25.50;16.05;;;4.10;99.90;;;;;;4981717;28;20448;-79
2023/01/03 00:37:20;;;;;;;25.48;15.02;;;4.20;99.90;;;;;;4978981;28;20049;-80
2023/01/03 00:39:46;;;;;;;31.02;17.10;;;4.30;99.90;;;;;;4980736;28;20038;-80
2023/01/03 00:42:12;;;;;;;31.45;17.23;;;4.30;99.90;;;;;;4982186;28;20038;-79
2023/01/03 00:44:37;;;;;;;29.40;16.58;;;4.20;99.90;;;;;;4980021;28;20037;-79
2023/01/03 00:47:03;;;;;;;27.13;15.20;;;4.10;99.90;;;;;;4977533;28;20030;-80
2023/01/03 00:49:28;;;;;;;29.77;16.27;;;4.20;99.90;;;;;;4971494;28;20037;-79
2023/01/03 00:51:54;;;;;;;26.35;15.88;;;4.20;99.90;;;;;;4977603;28;20145;-79
2023/01/03 00:54:21;;;;;;;28.92;16.60;;;4.30;99.90;;;;;;4978899;28;20066;-80
2023/01/03 00:56:48;;;;;;;23.70;15.32;;;4.30;99.90;;;;;;4962370;28;20179;-79
2023/01/03 00:59:15;;;;;;;28.00;15.43;;;4.40;99.90;;;;;;4973219;28;20248;-79
2023/01/03 01:01:42;;;;;;;24.08;14.60;;;4.60;99.90;;;;;;4978340;28;20038;-79
2023/01/03 01:04:12;;;;;;;26.13;14.85;;;4.70;99.90;;;;;;4973646;28;20108;-79
2023/01/03 01:06:41;;;;;;;23.35;14.77;;;4.70;99.90;;;;;;4966283;28;20039;-79
2023/01/03 01:09:10;;;;;;;21.90;13.52;;;4.80;99.90;;;;;;4976325;28;20022;-79
2023/01/03 01:11:36;;;;;;;22.95;13.82;;;4.90;99.90;;;;;;4977153;28;20038;-78
2023/01/03 01:14:02;;;;;;;24.25;14.15;;;4.80;99.90;;;;;;4980138;28;20465;-79
2023/01/03 01:16:30;;;;;;;21.77;14.32;;;4.90;99.90;;;;;;4982863;28;20034;-79
2023/01/03 01:18:58;;;;;;;24.23;14.32;;;4.90;99.90;;;;;;4982728;28;20134;-79
2023/01/03 01:21:27;;;;;;;26.27;15.32;;;4.90;99.90;;;;;;4982349;28;20042;-79
2023/01/03 01:23:52;;;;;;;24.13;14.73;;;5.00;99.90;;;;;;4981699;28;20450;-79
2023/01/03 01:26:21;;;;;;;26.02;13.85;;;5.00;99.90;;;;;;4981420;28;20084;-78
2023/01/03 01:28:47;;;;;;;20.20;13.15;;;5.00;99.90;;;;;;4982004;28;20032;-79
2023/01/03 01:31:16;;;;;;;22.17;13.50;;;5.00;99.90;;;;;;4997623;28;20037;-79
2023/01/03 01:33:42;;;;;;;21.17;13.68;;;5.00;99.90;;;;;;5002433;28;20030;-79
2023/01/03 01:36:11;;;;;;;18.80;12.25;;;5.00;99.90;;;;;;5001703;28;20042;-78
2023/01/03 01:38:36;;;;;;;23.83;13.65;;;5.00;99.90;;;;;;4991636;28;20038;-78
2023/01/03 01:41:02;;;;;;;20.27;12.23;;;5.00;99.90;;;;;;4982572;28;20047;-79
2023/01/03 01:46:24;;;;;;;23.15;11.48;;;5.20;99.90;;;;;;4981746;28;20092;-79
2023/01/03 01:48:55;;;;;;;22.73;11.82;;;5.30;99.90;;;;;;4963941;28;20077;-78
2023/01/03 01:51:22;;;;;;;23.98;12.68;;;5.30;99.90;;;;;;4975683;28;20490;-78
2023/01/03 01:53:50;;;;;;;22.35;11.18;;;5.30;99.90;;;;;;4980159;28;20026;-78
2023/01/03 01:56:20;;;;;;;20.42;11.50;;;5.40;99.90;;;;;;4982376;28;20627;-78
2023/01/03 01:58:49;;;;;;;17.92;10.82;;;5.40;99.90;;;;;;4985083;28;20106;-78
2023/01/03 02:01:18;;;;;;;16.05;10.38;;;5.50;99.90;;;;;;4987087;28;20189;-78
2023/01/03 02:04:00;;;;;;;20.25;10.00;;;5.60;99.90;;;;;;4982900;28;20042;-78
2023/01/03 02:06:27;;;;;;;15.55;9.70;;;5.70;99.90;;;;;;4985692;28;20037;-78
2023/01/03 02:08:53;;;;;;;18.27;10.15;;;5.80;99.90;;;;;;4985909;28;20034;-79
2023/01/03 02:13:04;;;;;;;18.42;9.98;;;5.90;99.90;;;;;;4985595;28;20141;-77
2023/01/03 02:14:46;;;;;;;16.33;9.63;;;6.00;99.90;;;;;;4985230;28;20034;-78
2023/01/03 02:17:15;;;;;;;17.73;10.20;;;6.10;99.90;;;;;;4980984;28;20034;-78
2023/01/03 02:20:37;;;;;;;20.20;9.93;;;6.20;99.90;;;;;;4983166;28;20027;-78
2023/01/03 02:23:26;;;;;;;15.02;10.18;;;6.30;99.90;;;;;;4965809;28;20237;-78
2023/01/03 02:26:24;;;;;;;14.77;9.00;;;6.40;99.90;;;;;;4968379;28;20102;-79
2023/01/03 02:29:08;;;;;;;19.35;9.57;;;6.40;99.90;;;;;;4982936;28;20093;-78
2023/01/03 02:31:43;;;;;;;16.45;10.02;;;6.40;99.90;;;;;;4976618;28;20107;-79
2023/01/03 02:34:38;;;;;;;23.40;9.27;;;6.50;99.90;;;;;;4976920;28;20065;-79
2023/01/03 02:37:17;;;;;;;16.80;8.48;;;6.50;99.90;;;;;;4979141;28;20455;-78
2023/01/03 02:39:57;;;;;;;17.52;8.90;;;6.60;99.90;;;;;;5003438;28;20044;-78
2023/01/03 02:42:57;;;;;;;14.88;7.75;;;6.60;99.90;;;;;;4977925;28;20109;-78
2023/01/03 02:45:31;;;;;;;20.52;8.48;;;6.60;99.90;;;;;;4993599;28;20022;-78
2023/01/03 02:48:03;;;;;;;12.65;7.47;;;6.70;99.90;;;;;;4982334;28;20034;-78
2023/01/03 02:50:35;;;;;;;14.95;7.20;;;6.70;99.90;;;;;;4979336;28;20031;-79
2023/01/03 02:53:05;;;;;;;11.20;6.88;;;6.80;99.90;;;;;;4979840;28;20489;-79
2023/01/03 02:55:33;;;;;;;14.63;6.90;;;6.80;99.90;;;;;;4980933;28;20046;-78
2023/01/03 02:58:07;;;;;;;16.38;6.40;;;6.90;99.90;;;;;;4981552;28;20037;-78
2023/01/03 03:00:37;;;;;;;11.60;4.90;;;7.10;99.90;;;;;;4979681;28;20137;-78
2023/01/03 03:03:12;;;;;;;14.68;5.32;;;7.30;99.90;;;;;;4985505;28;20061;-78
2023/01/03 03:06:13;;;;;;;17.45;5.03;;;7.40;99.90;;;;;;4977325;28;20113;-78
2023/01/03 03:08:42;;;;;;;18.38;5.50;;;7.50;99.90;;;;;;4965460;28;20144;-78
2023/01/03 03:13:58;;;;;;;13.70;3.90;;;7.70;99.90;;;;;;4970031;28;20109;-79
2023/01/03 03:16:46;;;;;;;15.13;4.60;;;7.70;99.90;;;;;;4969610;28;20106;-78
2023/01/03 03:25:08;;;;;;;16.60;3.17;;;7.70;99.90;;;;;;4983431;28;20041;-78
2023/01/03 03:30:23;;;;;;;7.68;2.88;;;7.60;99.90;;;;;;4982889;28;20067;-78
2023/01/03 03:32:53;;;;;;;18.30;3.10;;;7.60;99.90;;;;;;4983694;28;20054;-78
2023/01/03 03:35:21;;;;;;;10.52;3.00;;;7.60;99.90;;;;;;4982892;28;20045;-78
2023/01/03 03:37:48;;;;;;;19.80;3.75;;;7.70;99.90;;;;;;4981163;28;20041;-78
2023/01/03 03:46:26;;;;;;;16.10;3.05;;;8.20;99.90;;;;;;4981287;28;20103;-78
2023/01/03 03:51:47;;;;;;;16.42;2.30;;;8.40;99.90;;;;;;4985726;28;20116;-78
2023/01/03 03:54:19;;;;;;;13.60;2.38;;;8.50;99.90;;;;;;4981649;28;20581;-78
2023/01/03 03:56:49;;;;;;;15.88;2.53;;;8.60;99.90;;;;;;4984083;28;20054;-78
2023/01/03 03:59:20;;;;;;;22.73;3.17;;;8.70;99.90;;;;;;4978920;28;20030;-78
2023/01/03 04:01:46;;;;;;;19.83;2.90;;;8.80;99.90;;;;;;4981632;28;20545;-78
2023/01/03 04:04:26;;;;;;;22.45;2.88;;;8.80;99.90;;;;;;4979326;28;20046;-78
2023/01/03 04:06:52;;;;;;;15.88;2.17;;;8.90;99.90;;;;;;4987544;28;20030;-79
2023/01/03 04:09:18;;;;;;;21.27;2.83;;;9.00;99.90;;;;;;4990948;28;20235;-79
2023/01/03 04:11:43;;;;;;;14.57;2.53;;;8.90;99.90;;;;;;4981992;28;20038;-78
2023/01/03 04:14:10;;;;;;;14.63;2.50;;;9.00;99.90;;;;;;4983876;28;20040;-78
2023/01/03 04:16:36;;;;;;;15.27;1.90;;;9.10;99.90;;;;;;4984425;28;20042;-78
2023/01/03 04:19:02;;;;;;;20.63;2.45;;;9.00;99.90;;;;;;4981871;28;20080;-78
2023/01/03 04:21:28;;;;;;;15.00;2.10;;;9.10;99.90;;;;;;4999011;28;20410;-78
2023/01/03 04:23:54;;;;;;;11.25;2.03;;;9.20;99.90;;;;;;4983767;28;20038;-78
2023/01/03 04:26:19;;;;;;;14.30;2.35;;;9.20;99.90;;;;;;4983370;28;20331;-79
2023/01/03 04:28:45;;;;;;;14.35;1.98;;;9.10;99.90;;;;;;4983320;28;20366;-78
2023/01/03 04:31:11;;;;;;;19.25;2.22;;;9.10;99.90;;;;;;4983291;28;20403;-78
2023/01/03 04:33:36;;;;;;;16.13;1.90;;;9.10;99.90;;;;;;4999292;28;20026;-78
2023/01/03 04:36:02;;;;;;;18.08;1.80;;;9.00;99.90;;;;;;4983065;28;20225;-78
2023/01/03 04:38:28;;;;;;;18.13;1.67;;;9.00;99.90;;;;;;4980799;28;20131;-79
2023/01/03 04:40:53;;;;;;;11.38;1.35;;;8.90;99.90;;;;;;4981002;28;20537;-78
2023/01/03 04:46:03;;;;;;;16.40;2.35;;;8.80;99.90;;;;;;4983519;28;20045;-79
2023/01/03 04:48:29;;;;;;;17.05;2.05;;;8.70;99.90;;;;;;4983188;28;20034;-78
2023/01/03 04:50:58;;;;;;;14.13;2.08;;;8.70;99.90;;;;;;4982421;28;20381;-78
2023/01/03 04:53:25;;;;;;;16.65;1.42;;;8.70;99.90;;;;;;4984714;28;20045;-78
2023/01/03 04:55:51;;;;;;;13.77;1.75;;;8.70;99.90;;;;;;4982814;28;20101;-78
2023/01/03 04:58:18;;;;;;;12.70;1.17;;;8.70;99.90;;;;;;4984279;28;20037;-78
2023/01/03 05:00:43;;;;;;;11.23;1.60;;;8.70;99.90;;;;;;4984510;28;20018;-77
2023/01/03 05:03:09;;;;;;;9.20;1.13;;;8.70;99.90;;;;;;4981746;28;20054;-78
2023/01/03 05:05:38;;;;;;;9.00;1.15;;;8.70;99.90;;;;;;4981464;28;20058;-78
2023/01/03 05:08:05;;;;;;;10.63;1.10;;;8.80;99.90;;;;;;4983460;28;20180;-77
2023/01/03 05:10:31;;;;;;;10.90;1.67;;;8.80;99.90;;;;;;4981970;28;20038;-78
2023/01/03 05:13:00;;;;;;;14.77;1.40;;;8.80;99.90;;;;;;4981978;28;20123;-78
2023/01/03 05:15:27;;;;;;;8.45;1.42;;;8.70;99.90;;;;;;4994280;28;20034;-77
2023/01/03 05:17:53;;;;;;;11.00;1.52;;;8.60;99.90;;;;;;4984362;28;20093;-78
2023/01/03 05:25:51;;;;;;;16.10;1.60;;;8.60;99.90;;;;;;4983733;28;20070;-78
2023/01/03 05:28:20;;;;;;;16.40;1.35;;;8.60;99.90;;;;;;4979702;28;20466;-78
2023/01/03 05:30:46;;;;;;;12.75;1.98;;;8.70;99.90;;;;;;4983915;28;20035;-77
2023/01/03 05:33:12;;;;;;;11.50;1.77;;;8.80;99.90;;;;;;4986046;28;20053;-79
2023/01/03 05:35:37;;;;;;;16.65;1.60;;;8.80;99.90;;;;;;4979455;28;20026;-78
2023/01/03 05:38:03;;;;;;;13.00;1.45;;;8.80;99.90;;;;;;4985713;28;20065;-78
2023/01/03 05:40:29;;;;;;;20.75;2.10;;;8.90;99.90;;;;;;4993554;28;20049;-78
2023/01/03 05:42:54;;;;;;;12.73;2.00;;;8.90;99.90;;;;;;4987121;28;20046;-78
2023/01/03 05:45:24;;;;;;;19.13;1.92;;;9.00;99.90;;;;;;4987093;28;20370;-78
2023/01/03 05:47:50;;;;;;;17.00;2.05;;;9.00;99.90;;;;;;5003302;28;20042;-78
2023/01/03 05:50:16;;;;;;;16.67;1.90;;;9.10;99.90;;;;;;4984808;28;20026;-78
2023/01/03 05:52:41;;;;;;;17.73;1.88;;;9.10;99.90;;;;;;4985767;28;20030;-78
2023/01/03 05:55:08;;;;;;;19.05;2.08;;;9.00;99.90;;;;;;4987409;28;20315;-78
2023/01/03 05:57:33;;;;;;;7.70;1.15;;;9.00;99.90;;;;;;4985658;28;20033;-79
2023/01/03 05:59:59;;;;;;;14.45;2.00;;;9.00;99.90;;;;;;4986194;28;20425;-78
2023/01/03 06:02:24;;;;;;;14.90;1.63;;;9.10;99.90;;;;;;4992588;28;20041;-77
2023/01/03 06:04:50;;;;;;;13.13;1.40;;;9.10;99.90;;;;;;4985929;28;20038;-78
2023/01/03 06:07:15;;;;;;;17.10;1.73;;;9.10;99.90;;;;;;4985353;28;20574;-78
2023/01/03 06:09:41;;;;;;;11.85;1.40;;;9.10;99.90;;;;;;4973058;28;20037;-78
2023/01/03 06:12:06;;;;;;;18.67;2.05;;;9.20;99.90;;;;;;4972925;28;20035;-78
2023/01/03 06:14:32;;;;;;;18.95;1.80;;;9.20;99.90;;;;;;4982997;28;20041;-77
2023/01/03 06:19:42;;;;;;;16.33;1.88;;;9.10;99.90;;;;;;4983150;28;20108;-78
2023/01/03 06:22:07;;;;;;;12.52;1.42;;;9.10;99.90;;;;;;4965995;28;20070;-78
2023/01/03 06:24:33;;;;;;;13.57;1.58;;;9.20;99.90;;;;;;4983130;28;20504;-78
2023/01/03 06:26:58;;;;;;;17.58;1.70;;;9.20;99.90;;;;;;4979108;28;20046;-78
2023/01/03 06:29:24;;;;;;;15.13;2.15;;;9.20;99.90;;;;;;4972785;28;20560;-78
2023/01/03 06:31:50;;;;;;;9.23;1.40;;;9.20;99.90;;;;;;4984409;28;20034;-77
2023/01/03 06:34:15;;;;;;;10.50;1.38;;;9.10;99.90;;;;;;4981319;28;20074;-78
2023/01/03 06:36:41;;;;;;;12.75;1.17;;;9.10;99.90;;;;;;4977787;28;20045;-79
2023/01/03 06:39:07;;;;;;;8.52;0.98;;;9.10;99.90;;;;;;4979982;28;20106;-77
2023/01/03 06:41:33;;;;;;;16.23;1.67;;;9.10;99.90;;;;;;4982608;28;20100;-77
2023/01/03 06:43:58;;;;;;;19.10;1.65;;;9.00;99.90;;;;;;4983015;28;20455;-78
2023/01/03 06:54:45;;;;;;;14.10;1.50;;;8.90;99.90;;;;;;4982924;28;20125;-78
2023/01/03 06:57:10;;;;;;;14.18;1.60;;;8.90;99.90;;;;;;4984066;28;20042;-78
2023/01/03 06:59:36;;;;;;;9.90;1.17;;;8.90;99.90;;;;;;4979955;28;20022;-77
2023/01/03 07:02:05;;;;;;;11.90;1.27;;;9.00;99.90;;;;;;4985359;28;20096;-78
2023/01/03 07:04:31;;;;;;;16.55;1.63;;;8.90;99.90;;;;;;4971208;28;20339;-77
2023/01/03 07:06:56;;;;;;;14.68;2.35;;;8.90;99.90;;;;;;4979095;28;20045;-77
2023/01/03 07:09:23;;;;;;;17.38;2.00;;;8.80;99.90;;;;;;4976901;28;20027;-78
2023/01/03 07:11:48;;;;;;;10.35;1.70;;;8.80;99.90;;;;;;4985684;28;20034;-77
2023/01/03 07:14:14;;;;;;;18.48;2.13;;;8.80;99.90;;;;;;4980274;28;20027;-78
2023/01/03 07:16:42;;;;;;;15.80;1.35;;;8.90;99.90;;;;;;4976903;28;20030;-77
2023/01/03 07:19:11;;;;;;;18.02;1.85;;;9.00;99.90;;;;;;4983755;28;20026;-76
2023/01/03 07:21:36;;;;;;;13.75;1.38;;;8.80;99.90;;;;;;4979644;28;20473;-78
2023/01/03 07:24:04;;;;;;;20.67;2.22;;;8.90;99.90;;;;;;4984763;28;20022;-77
2023/01/03 07:26:32;;;;;;;17.40;1.83;;;9.00;99.90;;;;;;4989217;28;20105;-78
2023/01/03 07:28:59;;;;;;;13.70;1.98;;;9.00;99.90;;;;;;4979951;28;20269;-76
2023/01/03 07:31:24;;;;;;;15.98;1.48;;;9.10;99.90;;;;;;4981048;28;20049;-78
2023/01/03 07:33:51;;;;;;;13.20;1.55;;;9.10;99.90;;;;;;4985276;28;20409;-77
2023/01/03 07:36:18;;;;;;;12.88;1.65;;;9.20;99.90;;;;;;4984150;28;20031;-77
2023/01/03 07:38:44;;;;;;;14.45;1.73;;;9.20;99.90;;;;;;4985485;28;20034;-78
2023/01/03 07:41:11;;;;;;;22.42;2.35;;;9.30;99.90;;;;;;4982020;28;20062;-77
2023/01/03 07:43:40;;;;;;;14.45;2.08;;;9.30;99.90;;;;;;4983616;28;20042;-77
2023/01/03 07:46:06;;;;;;;13.77;1.73;;;9.40;99.90;;;;;;4975487;28;20689;-77
2023/01/03 07:48:32;;;;;;;17.33;1.67;;;9.50;99.90;;;;;;4997779;28;20085;-77
2023/01/03 07:50:58;;;;;;;17.98;2.10;;;9.50;99.90;;;;;;4982586;28;20089;-77
2023/01/03 07:53:24;;;;;;;17.88;1.95;;;9.60;99.90;;;;;;4982473;28;20031;-77
2023/01/03 07:55:49;;;;;;;19.27;1.58;;;9.50;99.90;;;;;;4982552;28;20031;-78
2023/01/03 07:58:15;;;;;;;16.05;1.98;;;9.50;99.90;;;;;;4982467;28;20171;-78
2023/01/03 08:00:41;;;;;;;16.60;1.95;;;9.50;99.90;;;;;;4970482;28;20126;-77
2023/01/03 08:03:08;;;;;;;17.77;1.73;;;9.50;99.90;;;;;;4979284;28;20536;-78
2023/01/03 08:05:34;;;;;;;19.63;1.88;;;9.60;99.90;;;;;;4983615;28;20037;-78
2023/01/03 08:08:01;;;;;;;17.90;2.92;;;9.60;99.90;;;;;;4982654;28;20035;-77
2023/01/03 08:13:19;;;;;;;42.30;2.75;;;9.60;99.90;;;;;;4700004;28;10001173;-77
2023/01/03 08:15:55;;;;;;;;;;;9.50;99.90;;;;;;4972338;28;20322;-78
2023/01/03 08:18:26;;;;;;;18.98;1.75;;;9.50;99.90;;;;;;4973210;28;19925;-77
2023/01/03 08:20:54;;;;;;;22.25;2.38;;;9.60;99.90;;;;;;4977323;28;20514;-77
2023/01/03 08:23:23;;;;;;;20.02;3.25;;;9.60;99.90;;;;;;4979147;28;20579;-77
2023/01/03 08:26:04;;;;;;;16.15;3.95;;;9.60;99.90;;;;;;5082596;27;20441;-71
2023/01/03 08:28:31;;;;;;;12.10;2.50;;;9.60;99.90;;;;;;5099257;28;20024;-71
2023/01/03 08:30:58;;;;;;;24.63;3.55;;;9.60;99.90;;;;;;5073371;28;20322;-71
2023/01/03 08:33:27;;;;;;;14.10;2.83;;;9.70;99.90;;;;;;5074774;28;21418;-70
2023/01/03 08:36:01;;;;;;;13.65;2.25;;;9.70;99.90;;;;;;5105063;27;20042;-70
2023/01/03 08:38:32;;;;;;;18.75;2.47;;;9.80;99.90;;;;;;5090548;28;20445;-70
2023/01/03 08:41:00;;;;;;;18.45;2.33;;;9.90;99.90;;;;;;5101686;28;20047;-72
2023/01/03 08:43:29;;;;;;;18.85;2.10;;;9.90;99.90;;;;;;5094594;28;20196;-71
2023/01/03 08:45:55;;;;;;;15.85;2.35;;;10.00;99.90;;;;;;5112615;28;20043;-71
2023/01/03 08:48:22;;;;;;;22.10;3.22;;;10.00;99.90;;;;;;5100614;28;20076;-71
2023/01/03 08:50:48;;;;;;;16.30;2.10;;;10.00;99.90;;;;;;5089631;28;20697;-70
2023/01/03 08:53:14;;;;;;;16.15;2.50;;;10.10;99.90;;;;;;5095926;28;20032;-71
2023/01/03 08:55:39;;;;;;;18.15;2.45;;;10.10;99.90;;;;;;5076226;28;20027;-71
2023/01/03 08:58:08;;;;;;;14.07;2.22;;;10.20;99.90;;;;;;5096540;28;20047;-70
2023/01/03 09:00:35;;;;;;;21.27;2.90;;;10.20;99.90;;;;;;5089256;28;20058;-69
2023/01/03 09:03:01;;;;;;;18.42;2.28;;;10.20;99.90;;;;;;5102161;28;20493;-70
2023/01/03 09:05:27;;;;;;;22.67;2.35;;;10.30;99.90;;;;;;5090255;28;20037;-70
2023/01/03 09:07:54;;;;;;;19.90;2.47;;;10.40;99.90;;;;;;5082186;28;20024;-69
2023/01/03 09:10:20;;;;;;;18.02;2.72;;;10.50;99.90;;;;;;5092184;28;20691;-70
2023/01/03 09:12:45;;;;;;;22.13;2.30;;;10.60;99.90;;;;;;5085375;28;20898;-69
2023/01/03 09:15:11;;;;;;;15.15;2.10;;;10.60;99.90;;;;;;5091931;28;20126;-70
2023/01/03 09:17:37;;;;;;;24.40;3.25;;;10.60;99.90;;;;;;5083389;28;20596;-70
2023/01/03 09:20:03;;;;;;;17.45;2.25;;;10.70;99.90;;;;;;5070157;28;20027;-69
2023/01/03 09:22:28;;;;;;;18.15;2.13;;;10.60;99.90;;;;;;5078021;28;20036;-69
2023/01/03 09:24:54;;;;;;;21.35;2.58;;;10.50;99.90;;;;;;5078506;28;20109;-70
2023/01/03 09:27:20;;;;;;;21.55;3.33;;;10.50;99.90;;;;;;5097865;28;20450;-69
2023/01/03 09:29:47;;;;;;;18.13;2.38;;;10.50;99.90;;;;;;5098141;28;20035;-69
2023/01/03 09:32:13;;;;;;;27.13;2.20;;;10.50;99.90;;;;;;5090808;28;20031;-70
2023/01/03 09:34:39;;;;;;;18.50;2.10;;;10.50;99.90;;;;;;5090650;28;20028;-70
2023/01/03 09:37:05;;;;;;;21.20;2.58;;;10.50;99.90;;;;;;5067433;28;20037;-70
2023/01/03 09:39:31;;;;;;;20.80;2.50;;;10.60;99.90;;;;;;5064831;28;20051;-70
2023/01/03 09:44:57;;;;;;;17.13;2.58;;;10.80;99.90;;;;;;5055089;28;20620;-70
2023/01/03 09:47:24;;;;;;;16.85;1.95;;;10.90;99.90;;;;;;5064878;28;20046;-70
2023/01/03 09:49:52;;;;;;;22.02;2.08;;;10.90;99.90;;;;;;5062757;28;20020;-70
2023/01/03 10:04:34;;;;;;;20.70;2.55;;;10.70;99.90;;;;;;5097301;28;20054;-70
2023/01/03 10:07:27;;;;;;;21.25;2.30;;;10.70;99.90;;;;;;5073724;28;20332;-71
2023/01/03 10:10:22;;;;;;;16.13;1.92;;;10.70;99.90;;;;;;5076865;28;20038;-70
2023/01/03 10:12:59;;;;;;;30.60;2.78;;;10.80;99.90;;;;;;5050514;28;20613;-71
2023/01/03 10:15:46;;;;;;;19.58;2.45;;;10.80;99.90;;;;;;5088861;28;20510;-70
2023/01/03 10:18:34;;;;;;;9.73;1.83;;;10.80;99.90;;;;;;5065066;28;20119;-70
2023/01/03 10:21:12;;;;;;;16.90;1.98;;;10.80;99.90;;;;;;5058930;28;20021;-70
2023/01/03 10:23:38;;;;;;;15.45;2.00;;;10.70;99.90;;;;;;5070038;28;20476;-69
2023/01/03 10:26:11;;;;;;;19.30;2.88;;;10.70;99.90;;;;;;5072417;28;20484;-69
2023/01/03 10:28:45;;;;;;;15.13;2.55;;;10.70;99.90;;;;;;5075375;28;20028;-69
2023/01/03 10:31:19;;;;;;;21.27;2.38;;;10.80;99.90;;;;;;5063799;28;20033;-69
2023/01/03 10:33:47;;;;;;;24.30;2.42;;;10.80;99.90;;;;;;5065508;28;20859;-70
2023/01/03 10:36:15;;;;;;;18.80;2.08;;;10.80;99.90;;;;;;5063534;28;20025;-70
2023/01/03 10:38:41;;;;;;;18.90;2.28;;;10.90;99.90;;;;;;5073276;28;20067;-70
2023/01/03 10:41:21;;;;;;;18.23;3.25;;;10.90;99.90;;;;;;5072337;28;20039;-70
2023/01/03 10:44:01;;;;;;;22.20;3.97;;;11.00;99.90;;;;;;5062046;28;20658;-70
2023/01/03 10:46:28;;;;;;;21.20;2.40;;;11.10;99.90;;;;;;5061690;28;20043;-70
2023/01/03 10:48:56;;;;;;;20.10;2.28;;;11.20;99.90;;;;;;5060505;28;20040;-70
2023/01/03 10:51:39;;;;;;;15.35;3.10;;;11.30;99.90;;;;;;5064135;28;20126;-70
2023/01/03 10:54:36;;;;;;;20.95;2.47;;;11.40;99.90;;;;;;5066688;28;20396;-71
2023/01/03 10:57:04;;;;;;;20.90;3.40;;;11.40;99.90;;;;;;5067053;28;20028;-73
2023/01/03 10:59:31;;;;;;;27.58;2.72;;;11.50;99.90;;;;;;5059976;28;20046;-70
2023/01/03 11:02:11;;;;;;;19.75;2.22;;;11.60;99.90;;;;;;5065824;28;20028;-70
2023/01/03 11:04:37;;;;;;;25.85;2.70;;;11.50;99.90;;;;;;5071370;28;20471;-70
2023/01/03 11:07:05;;;;;;;20.23;2.78;;;11.40;99.90;;;;;;5067308;28;20043;-70
2023/01/03 11:09:44;;;;;;;19.80;2.80;;;11.50;99.90;;;;;;5070398;28;20137;-71
2023/01/03 11:12:35;;;;;;;21.58;2.58;;;11.50;99.90;;;;;;5066501;28;20498;-71
2023/01/03 11:15:24;;;;;;;21.05;3.45;;;11.40;99.90;;;;;;4716272;27;10000339;-71
2023/01/03 11:17:59;;;;;;;21.63;2.40;;;11.20;99.90;;;;;;5041883;28;20710;-70
2023/01/03 11:21:06;;;;;;;24.35;3.13;;;11.10;99.90;;;;;;5080572;28;20390;-70
2023/01/03 11:23:55;;;;;;;15.90;2.58;;;11.00;99.90;;;;;;5037818;28;20048;-71
2023/01/03 11:26:42;;;;;;;24.10;3.22;;;10.80;99.90;;;;;;5080476;28;20104;-72
2023/01/03 11:29:31;;;;;;;24.63;2.70;;;10.70;99.90;;;;;;5076910;28;20024;-73
2023/01/03 11:32:20;;;;;;;18.83;2.50;;;10.70;99.90;;;;;;5067283;28;20028;-72
2023/01/03 11:35:07;;;;;;;25.92;2.47;;;10.60;99.90;;;;;;5040291;28;20041;-72
2023/01/03 11:37:35;;;;;;;26.73;2.33;;;10.60;99.90;;;;;;5061801;28;20034;-72
2023/01/03 11:40:20;;;;;;;29.42;3.47;;;10.60;99.90;;;;;;5061183;28;20115;-72
2023/01/03 11:43:10;;;;;;;19.35;2.08;;;10.60;99.90;;;;;;5071961;28;20033;-71
2023/01/03 11:45:55;;;;;;;32.07;3.70;;;10.60;99.90;;;;;;5057815;28;20570;-71
2023/01/03 11:48:34;;;;;;;27.40;3.00;;;10.60;99.90;;;;;;5058951;28;20056;-71
2023/01/03 11:51:12;;;;;;;22.83;2.15;;;10.60;99.90;;;;;;5064449;28;20361;-71
2023/01/03 11:53:47;;;;;;;23.20;2.67;;;10.60;99.90;;;;;;5063259;28;20035;-71
2023/01/03 11:56:18;;;;;;;17.25;2.10;;;10.60;99.90;;;;;;5064301;28;20500;-73
2023/01/03 11:59:06;;;;;;;27.05;2.78;;;10.50;99.90;;;;;;5064633;28;20024;-74
2023/01/03 12:02:13;;;;;;;18.65;2.85;;;10.60;99.90;;;;;;5087511;28;20020;-72
2023/01/03 12:04:43;;;;;;;16.20;2.25;;;10.60;99.90;;;;;;5083983;28;20067;-74
2023/01/03 12:07:16;;;;;;;24.48;3.42;;;10.60;99.90;;;;;;5056980;28;20136;-70
2023/01/03 12:10:06;;;;;;;26.50;2.60;;;10.60;99.90;;;;;;5073576;28;20098;-72
2023/01/03 12:12:52;;;;;;;19.65;2.10;;;10.60;99.90;;;;;;5077646;28;20028;-70
2023/01/03 12:15:33;;;;;;;21.25;2.63;;;10.50;99.90;;;;;;5064803;28;20124;-70
2023/01/03 12:18:07;;;;;;;27.37;3.70;;;10.40;99.90;;;;;;5073135;28;20028;-71
2023/01/03 12:20:45;;;;;;;22.60;3.53;;;10.50;99.90;;;;;;5061858;28;20281;-73
2023/01/03 12:23:38;;;;;;;28.55;2.92;;;10.50;99.90;;;;;;5056648;28;20055;-73
2023/01/03 12:26:08;;;;;;;24.95;2.63;;;10.40;99.90;;;;;;5065592;28;20131;-74
2023/01/03 12:28:39;;;;;;;16.20;2.10;;;10.30;99.90;;;;;;5067474;28;20505;-73
2023/01/03 12:31:20;;;;;;;19.48;2.67;;;10.30;99.90;;;;;;5061741;28;20570;-72
2023/01/03 12:34:06;;;;;;;23.50;2.95;;;10.20;99.90;;;;;;5064534;28;20059;-74
2023/01/03 12:36:41;;;;;;;22.50;2.47;;;10.30;99.90;;;;;;5062176;28;20608;-74
2023/01/03 12:39:35;;;;;;;20.80;2.13;;;10.20;99.90;;;;;;5056717;28;20215;-73
2023/01/03 12:42:19;;;;;;;23.88;2.70;;;10.20;99.90;;;;;;5063189;28;20032;-73
2023/01/03 12:44:48;;;;;;;27.23;2.72;;;10.30;99.90;;;;;;5059498;28;20036;-74
2023/01/03 12:47:42;;;;;;;20.65;2.50;;;10.20;99.90;;;;;;5064004;28;20400;-73
2023/01/03 12:50:36;;;;;;;22.33;3.53;;;10.20;99.90;;;;;;5058313;28;20185;-72
2023/01/03 12:53:15;;;;;;;30.52;3.00;;;10.20;99.90;;;;;;5059725;28;20032;-72
2023/01/03 12:56:05;;;;;;;25.15;2.83;;;10.20;99.90;;;;;;5060758;28;20028;-72
2023/01/03 12:58:39;;;;;;;19.08;2.28;;;10.20;99.90;;;;;;5064324;28;21066;-72
2023/01/03 13:01:24;;;;;;;24.25;3.58;;;10.20;99.90;;;;;;5063028;28;20040;-71
2023/01/03 13:04:05;;;;;;;28.85;3.25;;;10.20;99.90;;;;;;5064333;28;20029;-72
2023/01/03 13:06:35;;;;;;;24.45;3.47;;;10.20;99.90;;;;;;5059887;28;20104;-72
2023/01/03 13:09:30;;;;;;;20.58;2.33;;;10.10;99.90;;;;;;5061674;28;20051;-72
2023/01/03 13:12:04;;;;;;;23.08;3.15;;;10.20;99.90;;;;;;5060710;28;20070;-71
2023/01/03 13:14:48;;;;;;;24.88;2.53;;;10.20;99.90;;;;;;5066913;28;20111;-73
2023/01/03 13:17:19;;;;;;;19.25;2.60;;;10.20;99.90;;;;;;5066668;28;20538;-71
2023/01/03 13:19:50;;;;;;;21.35;2.40;;;10.20;99.90;;;;;;5059400;28;20071;-72
2023/01/03 13:22:51;;;;;;;29.13;3.05;;;10.20;99.90;;;;;;5064238;28;20098;-73
2023/01/03 13:25:38;;;;;;;25.52;2.45;;;10.30;99.90;;;;;;5060810;28;20421;-72
2023/01/03 13:28:23;;;;;;;16.88;2.40;;;10.20;99.90;;;;;;5067372;28;20493;-71
2023/01/03 13:31:09;;;;;;;19.83;2.28;;;10.30;99.90;;;;;;4698339;28;10000636;-71
2023/01/03 13:33:53;;;;;;;23.48;2.30;;;10.20;99.90;;;;;;5059306;28;20031;-71
2023/01/03 13:36:19;;;;;;;27.88;2.65;;;10.30;99.90;;;;;;5063970;28;20099;-70
2023/01/03 13:38:45;;;;;;;31.52;4.28;;;10.30;99.90;;;;;;5060194;28;20055;-71
2023/01/03 13:41:37;;;;;;;26.90;3.00;;;10.40;99.90;;;;;;5056854;28;20474;-71
2023/01/03 13:44:14;;;;;;;33.58;3.20;;;10.40;99.90;;;;;;5059253;28;20048;-71
2023/01/03 13:46:41;;;;;;;17.75;2.58;;;10.40;99.90;;;;;;5060193;28;20110;-71
2023/01/03 13:49:13;;;;;;;23.80;2.50;;;10.50;99.90;;;;;;5058568;28;20401;-70
2023/01/03 13:51:39;;;;;;;29.50;2.83;;;10.50;99.90;;;;;;5065900;28;20314;-69
2023/01/03 13:54:11;;;;;;;28.80;3.47;;;10.50;99.90;;;;;;5065187;28;20655;-70
2023/01/03 13:56:42;;;;;;;28.45;2.63;;;10.50;99.90;;;;;;5067858;28;20063;-71
2023/01/03 13:59:14;;;;;;;;;;;10.50;99.90;;;;;;5071191;28;20560;-70
2023/01/03 14:01:55;;;;;;;;;;;10.50;99.90;;;;;;5062229;28;19973;-70
2023/01/03 14:04:58;;;;;;;29.93;2.70;;;10.50;99.90;;;;;;5063852;28;20026;-71
2023/01/03 14:07:51;;;;;;;28.40;3.30;;;10.50;99.90;;;;;;5072675;28;20082;-70